createdAt,value
2022-09-11T00:25:46.261Z,12.9
2022-09-11T01:36:01.523Z,12.1
2022-09-11T03:26:24.167Z,12.4
2022-09-11T04:06:33.054Z,12.9
2022-09-11T04:16:34.945Z,13
2022-09-11T04:26:36.986Z,13
2022-09-11T04:36:39.324Z,12.9
2022-09-11T04:46:41.539Z,12.9
2022-09-11T04:56:44.161Z,12.7
2022-09-11T05:06:46.059Z,12.7
2022-09-11T05:16:47.939Z,12.8
2022-09-11T05:26:50.425Z,12.9
2022-09-11T05:36:52.195Z,12.9
2022-09-11T05:56:56.499Z,12.8
2022-09-11T06:06:58.720Z,13
2022-09-11T06:17:00.765Z,12.9
2022-09-11T06:27:02.469Z,13
2022-09-11T06:37:05.060Z,13
2022-09-11T06:47:07.578Z,13.1
2022-09-11T06:57:10.132Z,13.1
2022-09-11T07:07:12.627Z,13.2
2022-09-11T07:17:14.532Z,13.2
2022-09-11T07:27:16.771Z,13.4
2022-09-11T07:47:21.151Z,13.4
2022-09-11T07:57:23.544Z,13.5
2022-09-11T08:07:25.570Z,13.5
2022-09-11T08:17:27.687Z,13.8
2022-09-11T08:37:31.657Z,14
2022-09-11T08:47:34.277Z,14.2
2022-09-11T08:57:36.317Z,14.3
2022-09-11T09:17:40.800Z,14.3
2022-09-11T09:27:42.698Z,13.8
2022-09-11T09:37:44.850Z,14.4
2022-09-11T10:17:54.530Z,14.7
2022-09-11T10:27:57.112Z,14.9
2022-09-11T10:37:59.655Z,15.1
2022-09-11T10:48:01.956Z,15.7
2022-09-11T10:58:04.514Z,15.6
2022-09-11T11:18:08.663Z,16.2
2022-09-11T11:38:12.641Z,17
2022-09-11T11:48:15.029Z,16.7
2022-09-11T11:58:17.296Z,17
2022-09-11T12:18:21.851Z,17.4
2022-09-11T12:28:23.570Z,19.2
2022-09-11T12:38:25.305Z,20.9
2022-09-11T12:48:27.808Z,20.3
2022-09-11T12:58:30.240Z,20.7
2022-09-11T13:08:32.856Z,21.2
2022-09-11T13:18:34.878Z,21.3
2022-09-11T13:28:37.045Z,20.3
2022-09-11T13:38:39.265Z,20.8
2022-09-11T14:08:45.855Z,19.3
2022-09-11T14:38:52.188Z,20.1
2022-09-11T14:58:56.795Z,19.6
2022-09-11T15:19:00.918Z,19.1
2022-09-11T15:29:03.540Z,19.1
2022-09-11T15:39:05.803Z,18.8
2022-09-11T15:49:07.684Z,18.9
2022-09-11T15:59:10.224Z,18.8
2022-09-11T16:09:12.694Z,18.6
2022-09-11T16:19:14.744Z,18.5
2022-09-11T16:29:16.422Z,18
2022-09-11T16:39:18.797Z,18.1
2022-09-11T16:49:20.735Z,17.9
2022-09-11T17:09:25.373Z,17.3
2022-09-11T17:19:27.768Z,17.1
2022-09-11T17:29:29.689Z,16.7
2022-09-11T17:39:31.398Z,16.3
2022-09-11T17:49:34.035Z,16
2022-09-11T17:59:36.389Z,15.7
2022-09-11T18:19:40.543Z,15.2
2022-09-11T18:29:43.165Z,15
2022-09-11T18:39:45.296Z,14.9
2022-09-11T18:49:47.647Z,14.6
2022-09-11T18:59:50.216Z,14.3
2022-09-11T19:09:52.810Z,14.2
2022-09-11T19:19:55.208Z,14
2022-09-11T19:29:57.605Z,13.8
2022-09-11T19:40:00.476Z,13.6
2022-09-11T19:50:01.485Z,13.5
2022-09-11T20:00:03.324Z,13.3
2022-09-11T20:10:05.797Z,13.3
2022-09-11T20:20:07.876Z,13
2022-09-11T20:30:10.093Z,12.9
2022-09-11T20:40:12.374Z,12.9
2022-09-11T20:50:14.145Z,12.8
2022-09-11T21:00:16.251Z,12.6
2022-09-11T21:10:18.456Z,12.6
2022-09-11T21:20:20.121Z,12.4
2022-09-11T21:30:22.444Z,12.4
2022-09-11T21:40:24.405Z,12.2
2022-09-11T21:50:26.817Z,12.1
2022-09-11T22:00:28.871Z,12.1
2022-09-11T22:10:30.513Z,11.9
2022-09-11T22:20:32.688Z,11.8
2022-09-11T22:30:35.243Z,11.6
2022-09-11T22:40:37.743Z,11.5
2022-09-11T22:50:39.764Z,11.4
2022-09-11T23:00:41.911Z,11.2
2022-09-11T23:10:43.785Z,11.2
2022-09-11T23:20:45.568Z,11
2022-09-11T23:30:55.089Z,11
2022-09-11T23:40:57.587Z,10.9
2022-09-11T23:50:59.892Z,10.8
